sensor_id;sensor_type;location;lat;lon;timestamp;temperature;humidity
32839;DHT22;19182;41.820;12.808;2024-02-14T01:03:59;3.20;99.90
32839;DHT22;19182;41.820;12.808;2024-02-14T01:06:30;3.30;99.90
32839;DHT22;19182;41.820;12.808;2024-02-14T01:30:59;3.10;99.90
32839;DHT22;19182;41.820;12.808;2024-02-14T01:53:02;2.80;99.90
32839;DHT22;19182;41.820;12.808;2024-02-14T02:52:10;2.30;99.90
32839;DHT22;19182;41.820;12.808;2024-02-14T03:14:23;2.20;99.90
32839;DHT22;19182;41.820;12.808;2024-02-14T03:21:43;2.20;99.90
32839;DHT22;19182;41.820;12.808;2024-02-14T04:03:46;1.70;99.90
32839;DHT22;19182;41.820;12.808;2024-02-14T04:08:39;1.60;99.90
32839;DHT22;19182;41.820;12.808;2024-02-14T04:25:42;1.50;99.90
32839;DHT22;19182;41.820;12.808;2024-02-14T04:28:08;1.40;99.90
32839;DHT22;19182;41.820;12.808;2024-02-14T05:41:41;1.30;99.90
32839;DHT22;19182;41.820;12.808;2024-02-14T07:07:33;6.80;99.90
32839;DHT22;19182;41.820;12.808;2024-02-14T07:12:27;9.10;99.90
32839;DHT22;19182;41.820;12.808;2024-02-14T07:17:19;11.10;99.90
32839;DHT22;19182;41.820;12.808;2024-02-14T07:24:45;13.50;99.90
32839;DHT22;19182;41.820;12.808;2024-02-14T07:29:42;15.40;99.90
32839;DHT22;19182;41.820;12.808;2024-02-14T07:32:08;16.10;99.90
32839;DHT22;19182;41.820;12.808;2024-02-14T07:34:33;16.50;99.90
32839;DHT22;19182;41.820;12.808;2024-02-14T07:39:25;18.10;99.90
32839;DHT22;19182;41.820;12.808;2024-02-14T07:41:51;19.30;99.90
32839;DHT22;19182;41.820;12.808;2024-02-14T07:44:17;20.20;99.30
32839;DHT22;19182;41.820;12.808;2024-02-14T07:46:43;22.40;96.90
32839;DHT22;19182;41.820;12.808;2024-02-14T07:49:09;20.70;95.20
32839;DHT22;19182;41.820;12.808;2024-02-14T07:51:35;21.20;93.30
32839;DHT22;19182;41.820;12.808;2024-02-14T07:54:06;22.00;91.10
32839;DHT22;19182;41.820;12.808;2024-02-14T07:56:32;21.90;91.00
32839;DHT22;19182;41.820;12.808;2024-02-14T07:58:58;21.90;89.80
32839;DHT22;19182;41.820;12.808;2024-02-14T08:01:25;22.00;86.20
32839;DHT22;19182;41.820;12.808;2024-02-14T08:03:51;21.90;86.90
32839;DHT22;19182;41.820;12.808;2024-02-14T08:06:17;22.50;82.90
32839;DHT22;19182;41.820;12.808;2024-02-14T08:08:43;27.10;84.20
32839;DHT22;19182;41.820;12.808;2024-02-14T08:11:09;23.40;79.40
32839;DHT22;19182;41.820;12.808;2024-02-14T08:13:35;23.70;77.80
32839;DHT22;19182;41.820;12.808;2024-02-14T08:16:02;24.00;72.60
32839;DHT22;19182;41.820;12.808;2024-02-14T08:18:28;24.40;68.60
32839;DHT22;19182;41.820;12.808;2024-02-14T08:20:54;25.10;63.90
32839;DHT22;19182;41.820;12.808;2024-02-14T08:23:20;25.90;63.50
32839;DHT22;19182;41.820;12.808;2024-02-14T08:25:47;26.40;61.90
32839;DHT22;19182;41.820;12.808;2024-02-14T08:28:14;26.10;59.30
32839;DHT22;19182;41.820;12.808;2024-02-14T08:30:40;26.50;62.80
32839;DHT22;19182;41.820;12.808;2024-02-14T08:33:06;27.40;59.10
32839;DHT22;19182;41.820;12.808;2024-02-14T08:35:32;27.20;56.90
32839;DHT22;19182;41.820;12.808;2024-02-14T08:37:59;28.20;55.20
32839;DHT22;19182;41.820;12.808;2024-02-14T08:40:24;27.60;54.70
32839;DHT22;19182;41.820;12.808;2024-02-14T08:42:51;28.00;55.10
32839;DHT22;19182;41.820;12.808;2024-02-14T08:45:18;27.60;54.90
32839;DHT22;19182;41.820;12.808;2024-02-14T08:47:44;32.30;59.20
32839;DHT22;19182;41.820;12.808;2024-02-14T08:50:16;26.80;57.60
32839;DHT22;19182;41.820;12.808;2024-02-14T08:52:43;27.50;54.40
32839;DHT22;19182;41.820;12.808;2024-02-14T08:55:11;29.40;53.90
32839;DHT22;19182;41.820;12.808;2024-02-14T08:57:48;29.30;51.20
32839;DHT22;19182;41.820;12.808;2024-02-14T09:00:14;29.40;51.60
32839;DHT22;19182;41.820;12.808;2024-02-14T09:02:47;28.60;49.00
32839;DHT22;19182;41.820;12.808;2024-02-14T09:05:14;28.30;49.00
32839;DHT22;19182;41.820;12.808;2024-02-14T09:10:07;29.50;46.70
32839;DHT22;19182;41.820;12.808;2024-02-14T09:12:33;28.60;47.60
32839;DHT22;19182;41.820;12.808;2024-02-14T09:15:00;29.00;46.70
32839;DHT22;19182;41.820;12.808;2024-02-14T09:17:28;26.20;49.70
32839;DHT22;19182;41.820;12.808;2024-02-14T09:19:54;26.40;51.40
32839;DHT22;19182;41.820;12.808;2024-02-14T09:22:20;27.70;50.50
32839;DHT22;19182;41.820;12.808;2024-02-14T09:24:52;31.10;46.00
32839;DHT22;19182;41.820;12.808;2024-02-14T09:27:20;31.00;46.60
32839;DHT22;19182;41.820;12.808;2024-02-14T09:29:49;30.30;44.90
32839;DHT22;19182;41.820;12.808;2024-02-14T09:32:14;28.90;47.60
32839;DHT22;19182;41.820;12.808;2024-02-14T09:34:40;30.90;46.90
32839;DHT22;19182;41.820;12.808;2024-02-14T09:37:06;30.90;44.90
32839;DHT22;19182;41.820;12.808;2024-02-14T09:39:32;31.10;45.80
32839;DHT22;19182;41.820;12.808;2024-02-14T09:42:12;30.70;45.50
32839;DHT22;19182;41.820;12.808;2024-02-14T09:44:40;31.70;44.80
32839;DHT22;19182;41.820;12.808;2024-02-14T09:47:07;31.50;45.10
32839;DHT22;19182;41.820;12.808;2024-02-14T09:49:35;30.10;45.00
32839;DHT22;19182;41.820;12.808;2024-02-14T09:54:31;31.90;45.20
32839;DHT22;19182;41.820;12.808;2024-02-14T09:57:11;32.50;45.30
32839;DHT22;19182;41.820;12.808;2024-02-14T09:59:39;32.10;44.90
32839;DHT22;19182;41.820;12.808;2024-02-14T10:02:05;32.70;44.80
32839;DHT22;19182;41.820;12.808;2024-02-14T10:04:32;33.00;44.60
32839;DHT22;19182;41.820;12.808;2024-02-14T10:06:58;31.10;43.30
32839;DHT22;19182;41.820;12.808;2024-02-14T10:09:25;30.30;43.50
32839;DHT22;19182;41.820;12.808;2024-02-14T10:11:54;31.50;44.80
32839;DHT22;19182;41.820;12.808;2024-02-14T10:14:24;31.80;44.20
32839;DHT22;19182;41.820;12.808;2024-02-14T10:16:50;32.90;41.40
32839;DHT22;19182;41.820;12.808;2024-02-14T10:19:17;33.90;41.60
32839;DHT22;19182;41.820;12.808;2024-02-14T10:21:54;33.30;41.20
32839;DHT22;19182;41.820;12.808;2024-02-14T10:24:21;32.20;42.70
32839;DHT22;19182;41.820;12.808;2024-02-14T10:26:48;32.90;42.20
32839;DHT22;19182;41.820;12.808;2024-02-14T10:29:15;31.20;41.50
32839;DHT22;19182;41.820;12.808;2024-02-14T10:31:42;30.70;40.20
32839;DHT22;19182;41.820;12.808;2024-02-14T10:34:09;32.40;40.80
32839;DHT22;19182;41.820;12.808;2024-02-14T10:36:38;31.30;42.00
32839;DHT22;19182;41.820;12.808;2024-02-14T10:39:07;32.50;40.00
32839;DHT22;19182;41.820;12.808;2024-02-14T10:41:35;32.60;40.40
32839;DHT22;19182;41.820;12.808;2024-02-14T10:44:04;34.30;38.30
32839;DHT22;19182;41.820;12.808;2024-02-14T10:46:32;34.20;39.50
32839;DHT22;19182;41.820;12.808;2024-02-14T10:49:04;34.60;39.60
32839;DHT22;19182;41.820;12.808;2024-02-14T10:51:32;34.60;38.10
32839;DHT22;19182;41.820;12.808;2024-02-14T10:54:04;33.50;39.60
32839;DHT22;19182;41.820;12.808;2024-02-14T10:56:32;34.20;39.20
32839;DHT22;19182;41.820;12.808;2024-02-14T10:59:01;33.90;39.40
32839;DHT22;19182;41.820;12.808;2024-02-14T11:01:28;33.80;39.30
32839;DHT22;19182;41.820;12.808;2024-02-14T11:04:09;34.30;38.70
32839;DHT22;19182;41.820;12.808;2024-02-14T11:06:45;33.10;39.50
32839;DHT22;19182;41.820;12.808;2024-02-14T11:09:14;32.30;41.00
32839;DHT22;19182;41.820;12.808;2024-02-14T11:11:42;32.20;39.80
32839;DHT22;19182;41.820;12.808;2024-02-14T11:14:19;33.70;40.80
32839;DHT22;19182;41.820;12.808;2024-02-14T11:16:47;33.30;40.30
32839;DHT22;19182;41.820;12.808;2024-02-14T11:19:17;33.40;40.30
32839;DHT22;19182;41.820;12.808;2024-02-14T11:21:44;33.60;39.30
32839;DHT22;19182;41.820;12.808;2024-02-14T11:24:13;33.40;41.20
32839;DHT22;19182;41.820;12.808;2024-02-14T11:26:50;32.80;41.50
32839;DHT22;19182;41.820;12.808;2024-02-14T11:29:20;32.60;41.80
32839;DHT22;19182;41.820;12.808;2024-02-14T11:31:47;32.90;40.40
32839;DHT22;19182;41.820;12.808;2024-02-14T11:34:16;33.40;41.30
32839;DHT22;19182;41.820;12.808;2024-02-14T11:36:45;32.20;42.00
32839;DHT22;19182;41.820;12.808;2024-02-14T11:39:11;33.40;41.60
32839;DHT22;19182;41.820;12.808;2024-02-14T11:41:41;33.50;40.30
32839;DHT22;19182;41.820;12.808;2024-02-14T11:44:08;34.10;40.20
32839;DHT22;19182;41.820;12.808;2024-02-14T11:46:35;34.00;39.90
32839;DHT22;19182;41.820;12.808;2024-02-14T11:49:03;33.00;40.70
32839;DHT22;19182;41.820;12.808;2024-02-14T11:51:31;32.70;41.20
32839;DHT22;19182;41.820;12.808;2024-02-14T11:53:58;33.50;41.20
32839;DHT22;19182;41.820;12.808;2024-02-14T11:56:32;32.70;39.90
32839;DHT22;19182;41.820;12.808;2024-02-14T11:59:05;32.40;40.40
32839;DHT22;19182;41.820;12.808;2024-02-14T12:01:33;29.40;43.10
32839;DHT22;19182;41.820;12.808;2024-02-14T12:04:04;29.30;43.70
32839;DHT22;19182;41.820;12.808;2024-02-14T12:06:33;28.00;44.80
32839;DHT22;19182;41.820;12.808;2024-02-14T12:09:04;27.80;46.40
32839;DHT22;19182;41.820;12.808;2024-02-14T12:11:37;25.80;48.10
32839;DHT22;19182;41.820;12.808;2024-02-14T12:14:07;26.00;48.60
32839;DHT22;19182;41.820;12.808;2024-02-14T12:16:38;25.70;49.20
32839;DHT22;19182;41.820;12.808;2024-02-14T12:19:14;25.30;49.10
32839;DHT22;19182;41.820;12.808;2024-02-14T12:21:41;24.90;50.80
32839;DHT22;19182;41.820;12.808;2024-02-14T12:24:11;24.20;50.50
32839;DHT22;19182;41.820;12.808;2024-02-14T12:26:43;23.20;53.30
32839;DHT22;19182;41.820;12.808;2024-02-14T12:29:11;22.40;54.00
32839;DHT22;19182;41.820;12.808;2024-02-14T12:34:11;22.10;54.30
32839;DHT22;19182;41.820;12.808;2024-02-14T12:39:10;21.90;53.70
32839;DHT22;19182;41.820;12.808;2024-02-14T12:44:08;21.30;55.50
32839;DHT22;19182;41.820;12.808;2024-02-14T12:49:13;21.50;55.70
32839;DHT22;19182;41.820;12.808;2024-02-14T12:51:39;21.50;54.50
32839;DHT22;19182;41.820;12.808;2024-02-14T12:54:05;21.30;54.80
32839;DHT22;19182;41.820;12.808;2024-02-14T13:01:31;21.10;57.00
32839;DHT22;19182;41.820;12.808;2024-02-14T13:03:57;21.30;57.50
32839;DHT22;19182;41.820;12.808;2024-02-14T13:06:22;21.40;55.20
32839;DHT22;19182;41.820;12.808;2024-02-14T13:08:50;21.50;56.70
32839;DHT22;19182;41.820;12.808;2024-02-14T13:11:23;21.30;55.60
32839;DHT22;19182;41.820;12.808;2024-02-14T13:13:50;21.60;55.30
32839;DHT22;19182;41.820;12.808;2024-02-14T13:16:15;21.10;55.60
32839;DHT22;19182;41.820;12.808;2024-02-14T13:18:42;20.90;55.60
32839;DHT22;19182;41.820;12.808;2024-02-14T13:21:10;21.10;56.50
32839;DHT22;19182;41.820;12.808;2024-02-14T13:23:36;21.00;57.00
32839;DHT22;19182;41.820;12.808;2024-02-14T13:26:02;21.00;55.40
32839;DHT22;19182;41.820;12.808;2024-02-14T13:28:29;21.00;54.60
32839;DHT22;19182;41.820;12.808;2024-02-14T13:30:56;21.00;56.30
32839;DHT22;19182;41.820;12.808;2024-02-14T13:33:24;21.30;56.90
32839;DHT22;19182;41.820;12.808;2024-02-14T13:35:50;21.30;57.10
32839;DHT22;19182;41.820;12.808;2024-02-14T13:38:17;21.60;54.10
32839;DHT22;19182;41.820;12.808;2024-02-14T13:40:43;21.60;54.50
32839;DHT22;19182;41.820;12.808;2024-02-14T13:48:51;22.50;51.90
32839;DHT22;19182;41.820;12.808;2024-02-14T13:51:17;22.90;51.90
32839;DHT22;19182;41.820;12.808;2024-02-14T13:53:45;22.50;52.50
32839;DHT22;19182;41.820;12.808;2024-02-14T13:56:11;22.20;51.50
32839;DHT22;19182;41.820;12.808;2024-02-14T13:58:38;21.60;53.70
32839;DHT22;19182;41.820;12.808;2024-02-14T14:01:07;21.20;52.60
32839;DHT22;19182;41.820;12.808;2024-02-14T14:03:34;20.20;54.30
32839;DHT22;19182;41.820;12.808;2024-02-14T14:06:03;20.00;54.80
32839;DHT22;19182;41.820;12.808;2024-02-14T14:08:33;19.70;56.90
32839;DHT22;19182;41.820;12.808;2024-02-14T14:11:03;19.20;59.30
32839;DHT22;19182;41.820;12.808;2024-02-14T14:15:59;18.70;58.90
32839;DHT22;19182;41.820;12.808;2024-02-14T14:18:25;18.30;58.90
32839;DHT22;19182;41.820;12.808;2024-02-14T14:20:51;18.30;59.50
32839;DHT22;19182;41.820;12.808;2024-02-14T14:23:17;18.00;61.50
32839;DHT22;19182;41.820;12.808;2024-02-14T14:28:11;17.70;62.70
32839;DHT22;19182;41.820;12.808;2024-02-14T14:30:37;17.20;61.10
32839;DHT22;19182;41.820;12.808;2024-02-14T14:33:06;17.20;61.80
32839;DHT22;19182;41.820;12.808;2024-02-14T14:38:02;17.10;63.80
32839;DHT22;19182;41.820;12.808;2024-02-14T14:40:30;17.10;64.70
32839;DHT22;19182;41.820;12.808;2024-02-14T14:43:02;17.10;62.80
32839;DHT22;19182;41.820;12.808;2024-02-14T14:45:28;17.00;62.60
32839;DHT22;19182;41.820;12.808;2024-02-14T14:47:58;17.00;63.70
32839;DHT22;19182;41.820;12.808;2024-02-14T14:52:51;16.60;64.00
32839;DHT22;19182;41.820;12.808;2024-02-14T14:55:18;16.50;64.10
32839;DHT22;19182;41.820;12.808;2024-02-14T14:57:44;16.30;64.10
32839;DHT22;19182;41.820;12.808;2024-02-14T15:00:11;16.30;63.60
32839;DHT22;19182;41.820;12.808;2024-02-14T15:02:46;16.20;64.40
32839;DHT22;19182;41.820;12.808;2024-02-14T15:05:13;16.20;65.10
32839;DHT22;19182;41.820;12.808;2024-02-14T15:07:39;16.10;65.60
32839;DHT22;19182;41.820;12.808;2024-02-14T15:10:06;16.00;66.70
32839;DHT22;19182;41.820;12.808;2024-02-14T15:12:36;15.90;69.80
32839;DHT22;19182;41.820;12.808;2024-02-14T15:15:06;15.80;69.50
32839;DHT22;19182;41.820;12.808;2024-02-14T15:17:33;15.70;69.50
32839;DHT22;19182;41.820;12.808;2024-02-14T15:20:02;15.60;70.40
32839;DHT22;19182;41.820;12.808;2024-02-14T15:22:30;15.60;69.50
32839;DHT22;19182;41.820;12.808;2024-02-14T15:24:57;15.40;69.10
32839;DHT22;19182;41.820;12.808;2024-02-14T15:27:25;15.40;70.30
32839;DHT22;19182;41.820;12.808;2024-02-14T15:29:53;15.40;70.70
32839;DHT22;19182;41.820;12.808;2024-02-14T15:32:41;15.40;71.40
32839;DHT22;19182;41.820;12.808;2024-02-14T15:35:26;15.10;71.60
32839;DHT22;19182;41.820;12.808;2024-02-14T15:37:54;15.20;73.80
32839;DHT22;19182;41.820;12.808;2024-02-14T15:40:20;15.00;72.90
32839;DHT22;19182;41.820;12.808;2024-02-14T15:42:49;15.00;74.10
32839;DHT22;19182;41.820;12.808;2024-02-14T15:45:16;14.90;74.40
32839;DHT22;19182;41.820;12.808;2024-02-14T15:47:46;14.80;73.70
32839;DHT22;19182;41.820;12.808;2024-02-14T15:50:12;16.90;78.60
32839;DHT22;19182;41.820;12.808;2024-02-14T15:52:40;14.40;79.20
32839;DHT22;19182;41.820;12.808;2024-02-14T15:55:08;14.40;79.10
32839;DHT22;19182;41.820;12.808;2024-02-14T16:00:06;14.20;82.00
32839;DHT22;19182;41.820;12.808;2024-02-14T16:02:37;14.20;87.00
32839;DHT22;19182;41.820;12.808;2024-02-14T16:07:29;14.00;87.70
32839;DHT22;19182;41.820;12.808;2024-02-14T16:09:57;13.90;90.90
32839;DHT22;19182;41.820;12.808;2024-02-14T16:14:49;13.90;91.20
32839;DHT22;19182;41.820;12.808;2024-02-14T16:19:42;13.80;92.30
32839;DHT22;19182;41.820;12.808;2024-02-14T16:27:02;13.60;94.60
32839;DHT22;19182;41.820;12.808;2024-02-14T16:31:58;13.20;93.40
32839;DHT22;19182;41.820;12.808;2024-02-14T16:34:25;12.80;93.50
32839;DHT22;19182;41.820;12.808;2024-02-14T16:39:17;12.40;96.40
32839;DHT22;19182;41.820;12.808;2024-02-14T16:54:01;11.40;99.90
32839;DHT22;19182;41.820;12.808;2024-02-14T16:56:31;11.40;99.90
32839;DHT22;19182;41.820;12.808;2024-02-14T16:58:58;11.10;99.90
32839;DHT22;19182;41.820;12.808;2024-02-14T17:01:26;10.80;99.90
32839;DHT22;19182;41.820;12.808;2024-02-14T17:03:52;10.60;99.90
32839;DHT22;19182;41.820;12.808;2024-02-14T17:06:19;10.40;99.90
32839;DHT22;19182;41.820;12.808;2024-02-14T17:08:46;10.30;99.90
32839;DHT22;19182;41.820;12.808;2024-02-14T17:11:15;10.20;99.90
32839;DHT22;19182;41.820;12.808;2024-02-14T17:13:44;9.80;99.90
32839;DHT22;19182;41.820;12.808;2024-02-14T17:16:11;9.70;99.90
32839;DHT22;19182;41.820;12.808;2024-02-14T17:18:38;9.50;99.90
32839;DHT22;19182;41.820;12.808;2024-02-14T17:23:34;9.50;99.90
32839;DHT22;19182;41.820;12.808;2024-02-14T17:28:27;9.00;99.90
32839;DHT22;19182;41.820;12.808;2024-02-14T17:35:46;8.90;99.90
32839;DHT22;19182;41.820;12.808;2024-02-14T17:38:13;8.80;99.90
32839;DHT22;19182;41.820;12.808;2024-02-14T17:40:38;8.80;99.90
32839;DHT22;19182;41.820;12.808;2024-02-14T17:43:06;8.60;99.90
32839;DHT22;19182;41.820;12.808;2024-02-14T17:48:01;8.60;99.90
32839;DHT22;19182;41.820;12.808;2024-02-14T17:50:52;8.80;99.90
32839;DHT22;19182;41.820;12.808;2024-02-14T17:53:24;8.80;99.90
32839;DHT22;19182;41.820;12.808;2024-02-14T17:58:24;8.60;99.90
32839;DHT22;19182;41.820;12.808;2024-02-14T18:00:52;8.50;99.90
32839;DHT22;19182;41.820;12.808;2024-02-14T18:05:45;8.10;99.90
32839;DHT22;19182;41.820;12.808;2024-02-14T18:08:11;8.00;99.90
32839;DHT22;19182;41.820;12.808;2024-02-14T18:10:36;8.00;99.90
32839;DHT22;19182;41.820;12.808;2024-02-14T18:13:03;7.80;99.90
32839;DHT22;19182;41.820;12.808;2024-02-14T18:17:56;7.80;99.90
32839;DHT22;19182;41.820;12.808;2024-02-14T18:20:23;7.90;99.90
32839;DHT22;19182;41.820;12.808;2024-02-14T18:22:51;7.60;99.90
32839;DHT22;19182;41.820;12.808;2024-02-14T18:27:44;7.40;99.90
32839;DHT22;19182;41.820;12.808;2024-02-14T18:30:10;7.40;99.90
32839;DHT22;19182;41.820;12.808;2024-02-14T18:35:09;7.20;99.90
32839;DHT22;19182;41.820;12.808;2024-02-14T18:40:02;7.20;99.90
32839;DHT22;19182;41.820;12.808;2024-02-14T18:42:32;7.30;99.90
32839;DHT22;19182;41.820;12.808;2024-02-14T18:44:58;7.20;99.90
32839;DHT22;19182;41.820;12.808;2024-02-14T18:49:50;7.30;99.90
32839;DHT22;19182;41.820;12.808;2024-02-14T18:54:44;7.30;99.90
32839;DHT22;19182;41.820;12.808;2024-02-14T18:57:12;7.40;99.90
32839;DHT22;19182;41.820;12.808;2024-02-14T19:02:07;7.30;99.90
32839;DHT22;19182;41.820;12.808;2024-02-14T19:07:04;7.20;99.90
32839;DHT22;19182;41.820;12.808;2024-02-14T19:09:30;7.10;99.90
32839;DHT22;19182;41.820;12.808;2024-02-14T19:12:00;7.10;99.90
32839;DHT22;19182;41.820;12.808;2024-02-14T19:16:53;6.90;99.90
32839;DHT22;19182;41.820;12.808;2024-02-14T19:21:48;7.20;99.90
32839;DHT22;19182;41.820;12.808;2024-02-14T19:24:14;7.00;99.90
32839;DHT22;19182;41.820;12.808;2024-02-14T19:26:42;7.00;99.90
32839;DHT22;19182;41.820;12.808;2024-02-14T19:31:36;6.90;99.90
32839;DHT22;19182;41.820;12.808;2024-02-14T19:36:28;6.90;99.90
32839;DHT22;19182;41.820;12.808;2024-02-14T19:39:01;6.90;99.90
32839;DHT22;19182;41.820;12.808;2024-02-14T19:41:28;6.90;99.90
32839;DHT22;19182;41.820;12.808;2024-02-14T19:43:54;6.70;99.90
32839;DHT22;19182;41.820;12.808;2024-02-14T19:46:21;6.40;99.90
32839;DHT22;19182;41.820;12.808;2024-02-14T19:48:47;6.40;99.90
32839;DHT22;19182;41.820;12.808;2024-02-14T19:51:14;6.30;99.90
32839;DHT22;19182;41.820;12.808;2024-02-14T19:53:41;6.20;99.90
32839;DHT22;19182;41.820;12.808;2024-02-14T19:56:07;6.10;99.90
32839;DHT22;19182;41.820;12.808;2024-02-14T19:58:33;6.10;99.90
32839;DHT22;19182;41.820;12.808;2024-02-14T20:01:00;6.00;99.90
32839;DHT22;19182;41.820;12.808;2024-02-14T20:03:27;6.00;99.90
32839;DHT22;19182;41.820;12.808;2024-02-14T20:05:54;5.90;99.90
32839;DHT22;19182;41.820;12.808;2024-02-14T20:13:18;6.10;99.90
32839;DHT22;19182;41.820;12.808;2024-02-14T20:15:43;8.40;99.90
32839;DHT22;19182;41.820;12.808;2024-02-14T20:18:11;5.80;99.90
32839;DHT22;19182;41.820;12.808;2024-02-14T20:20:37;5.70;99.90
32839;DHT22;19182;41.820;12.808;2024-02-14T20:23:04;5.70;99.90
32839;DHT22;19182;41.820;12.808;2024-02-14T20:25:31;5.40;99.90
32839;DHT22;19182;41.820;12.808;2024-02-14T20:27:57;5.40;99.90
32839;DHT22;19182;41.820;12.808;2024-02-14T20:30:24;5.40;99.90
32839;DHT22;19182;41.820;12.808;2024-02-14T20:32:54;5.40;99.90
32839;DHT22;19182;41.820;12.808;2024-02-14T20:35:21;5.30;99.90
32839;DHT22;19182;41.820;12.808;2024-02-14T20:40:13;5.50;99.90
32839;DHT22;19182;41.820;12.808;2024-02-14T20:42:40;5.40;99.90
32839;DHT22;19182;41.820;12.808;2024-02-14T20:45:06;5.10;99.90
32839;DHT22;19182;41.820;12.808;2024-02-14T20:47:33;5.10;99.90
32839;DHT22;19182;41.820;12.808;2024-02-14T20:50:00;5.00;99.90
32839;DHT22;19182;41.820;12.808;2024-02-14T20:52:29;5.10;99.90
32839;DHT22;19182;41.820;12.808;2024-02-14T20:54:56;4.90;99.90
32839;DHT22;19182;41.820;12.808;2024-02-14T20:57:22;4.90;99.90
32839;DHT22;19182;41.820;12.808;2024-02-14T20:59:49;5.00;99.90
32839;DHT22;19182;41.820;12.808;2024-02-14T21:02:17;5.00;99.90
32839;DHT22;19182;41.820;12.808;2024-02-14T21:04:43;5.30;99.90
32839;DHT22;19182;41.820;12.808;2024-02-14T21:07:10;5.20;99.90
32839;DHT22;19182;41.820;12.808;2024-02-14T21:09:38;5.20;99.90
32839;DHT22;19182;41.820;12.808;2024-02-14T21:14:30;6.20;99.90
32839;DHT22;19182;41.820;12.808;2024-02-14T21:16:58;4.90;99.90
32839;DHT22;19182;41.820;12.808;2024-02-14T21:21:51;5.00;99.90
32839;DHT22;19182;41.820;12.808;2024-02-14T21:26:45;5.10;99.90
32839;DHT22;19182;41.820;12.808;2024-02-14T21:29:15;5.00;99.90
32839;DHT22;19182;41.820;12.808;2024-02-14T21:31:41;5.00;99.90
32839;DHT22;19182;41.820;12.808;2024-02-14T21:34:06;4.90;99.90
32839;DHT22;19182;41.820;12.808;2024-02-14T21:36:32;4.90;99.90
32839;DHT22;19182;41.820;12.808;2024-02-14T21:39:01;4.80;99.90
32839;DHT22;19182;41.820;12.808;2024-02-14T21:41:29;4.60;99.90
32839;DHT22;19182;41.820;12.808;2024-02-14T21:43:58;4.70;99.90
32839;DHT22;19182;41.820;12.808;2024-02-14T21:46:24;4.60;99.90
32839;DHT22;19182;41.820;12.808;2024-02-14T21:48:52;4.70;99.90
32839;DHT22;19182;41.820;12.808;2024-02-14T21:51:18;4.50;99.90
32839;DHT22;19182;41.820;12.808;2024-02-14T21:53:46;4.50;99.90
32839;DHT22;19182;41.820;12.808;2024-02-14T21:58:40;4.90;99.90
32839;DHT22;19182;41.820;12.808;2024-02-14T22:03:33;4.60;99.90
32839;DHT22;19182;41.820;12.808;2024-02-14T22:05:59;4.60;99.90
32839;DHT22;19182;41.820;12.808;2024-02-14T22:08:24;4.70;99.90
32839;DHT22;19182;41.820;12.808;2024-02-14T22:13:22;4.50;99.90
32839;DHT22;19182;41.820;12.808;2024-02-14T22:15:49;4.40;99.90
32839;DHT22;19182;41.820;12.808;2024-02-14T22:18:16;4.40;99.90
32839;DHT22;19182;41.820;12.808;2024-02-14T22:20:46;4.40;99.90
32839;DHT22;19182;41.820;12.808;2024-02-14T22:23:11;4.50;99.90
32839;DHT22;19182;41.820;12.808;2024-02-14T22:35:26;4.50;99.90
32839;DHT22;19182;41.820;12.808;2024-02-14T22:45:13;4.20;99.90
32839;DHT22;19182;41.820;12.808;2024-02-14T22:47:42;4.20;99.90
32839;DHT22;19182;41.820;12.808;2024-02-14T22:57:36;4.30;99.90
32839;DHT22;19182;41.820;12.808;2024-02-14T23:04:58;4.20;99.90
32839;DHT22;19182;41.820;12.808;2024-02-14T23:14:45;4.30;99.90
32839;DHT22;19182;41.820;12.808;2024-02-14T23:36:49;3.80;99.90
